createdAt,value
2022-09-04T00:02:26.150Z,20.80
2022-09-04T00:04:59.707Z,20.80
2022-09-04T00:07:43.357Z,20.90
2022-09-04T00:10:31.006Z,20.90
2022-09-04T00:13:07.665Z,20.80
2022-09-04T00:15:40.987Z,20.80
2022-09-04T00:18:25.333Z,20.80
2022-09-04T00:21:26.221Z,20.80
2022-09-04T00:23:59.652Z,20.60
2022-09-04T00:26:38.543Z,20.50
2022-09-04T00:29:27.763Z,20.50
2022-09-04T00:32:19.187Z,20.40
2022-09-04T00:35:07.538Z,20.40
2022-09-04T00:37:50.888Z,20.30
2022-09-04T00:40:31.279Z,20.30
2022-09-04T00:43:29.433Z,20.30
2022-09-04T00:46:29.787Z,20.20
2022-09-04T00:49:03.517Z,20.20
2022-09-04T00:51:54.830Z,20.30
2022-09-04T00:54:27.133Z,20.30
2022-09-04T00:57:27.331Z,20.30
2022-09-04T01:00:16.289Z,20.30
2022-09-04T01:03:14.466Z,20.30
2022-09-04T01:06:07.998Z,20.40
2022-09-04T01:09:01.860Z,20.40
2022-09-04T01:11:53.854Z,20.20
2022-09-04T01:14:42.551Z,20.20
2022-09-04T01:17:12.933Z,20.20
2022-09-04T01:20:31.225Z,20.10
2022-09-04T01:23:24.529Z,20.10
2022-09-04T01:26:10.908Z,20.00
2022-09-04T01:29:15.986Z,20.00
2022-09-04T01:32:05.602Z,20.00
2022-09-04T01:34:35.951Z,19.90
2022-09-04T01:37:33.558Z,19.90
2022-09-04T01:40:36.312Z,19.90
2022-09-04T01:43:11.310Z,19.80
2022-09-04T01:45:42.893Z,19.80
2022-09-04T01:48:13.747Z,19.80
2022-09-04T01:50:47.470Z,19.80
2022-09-04T01:53:21.818Z,19.80
2022-09-04T01:56:14.773Z,19.80
2022-09-04T01:59:06.304Z,19.80
2022-09-04T02:01:54.452Z,19.80
2022-09-04T02:04:21.654Z,19.80
2022-09-04T02:07:24.297Z,19.90
2022-09-04T02:10:07.866Z,19.80
2022-09-04T02:12:51.105Z,19.80
2022-09-04T02:15:29.472Z,19.70
2022-09-04T02:18:26.990Z,19.70
2022-09-04T02:20:59.609Z,19.70
2022-09-04T02:23:40.529Z,19.70
2022-09-04T02:26:19.362Z,19.70
2022-09-04T02:29:15.197Z,19.70
2022-09-04T02:31:54.261Z,19.70
2022-09-04T02:34:21.127Z,19.70
2022-09-04T02:37:22.389Z,19.70
2022-09-04T02:40:06.915Z,19.70
2022-09-04T02:42:41.457Z,19.60
2022-09-04T02:45:12.813Z,19.80
2022-09-04T02:48:05.606Z,19.60
2022-09-04T02:51:13.837Z,19.50
2022-09-04T02:54:07.051Z,19.50
2022-09-04T02:57:03.924Z,19.50
2022-09-04T03:00:05.366Z,19.50
2022-09-04T03:02:42.732Z,19.40
2022-09-04T03:05:28.422Z,19.40
2022-09-04T03:08:13.764Z,19.40
2022-09-04T03:11:05.016Z,19.40
2022-09-04T03:13:46.507Z,19.20
2022-09-04T03:16:37.074Z,19.30
2022-09-04T03:19:42.375Z,19.30
2022-09-04T03:22:33.431Z,19.30
2022-09-04T03:25:11.930Z,19.20
2022-09-04T03:27:38.868Z,19.30
2022-09-04T03:30:13.234Z,19.30
2022-09-04T03:33:17.493Z,19.20
2022-09-04T03:36:07.903Z,19.10
2022-09-04T03:38:49.537Z,19.10
2022-09-04T03:41:44.392Z,19.20
2022-09-04T03:44:29.306Z,19.20
2022-09-04T03:47:20.230Z,19.20
2022-09-04T03:50:01.971Z,19.20
2022-09-04T03:52:32.978Z,19.20
2022-09-04T03:55:20.461Z,19.20
2022-09-04T03:58:12.876Z,19.20
2022-09-04T04:01:02.144Z,19.10
2022-09-04T04:03:47.245Z,19.10
2022-09-04T04:06:37.440Z,19.10
2022-09-04T04:09:42.030Z,19.00
2022-09-04T04:12:27.651Z,19.00
2022-09-04T04:15:36.241Z,18.90
2022-09-04T04:18:13.861Z,18.90
2022-09-04T04:21:19.603Z,18.80
2022-09-04T04:24:01.946Z,18.80
2022-09-04T04:26:43.982Z,18.70
2022-09-04T04:29:38.765Z,18.70
2022-09-04T04:32:31.821Z,18.70
2022-09-04T04:35:04.458Z,18.70
2022-09-04T04:37:53.413Z,18.70
2022-09-04T04:41:06.695Z,18.70
2022-09-04T04:43:50.820Z,18.70
2022-09-04T04:46:39.079Z,18.70
2022-09-04T04:49:26.225Z,18.60
2022-09-04T04:52:21.524Z,18.60
2022-09-04T04:55:22.805Z,18.60
2022-09-04T04:58:27.623Z,18.60
2022-09-04T05:01:18.019Z,18.60
2022-09-04T05:03:47.812Z,18.80
2022-09-04T05:06:45.118Z,18.60
2022-09-04T05:09:40.134Z,18.50
2022-09-04T05:12:16.329Z,18.50
2022-09-04T05:14:50.105Z,18.50
2022-09-04T05:17:34.914Z,18.60
2022-09-04T05:20:26.518Z,18.60
2022-09-04T05:23:22.158Z,18.60
2022-09-04T05:26:11.379Z,18.60
2022-09-04T05:29:05.278Z,18.60
2022-09-04T05:31:56.671Z,18.70
2022-09-04T05:34:38.593Z,18.70
2022-09-04T05:37:25.942Z,18.70
2022-09-04T05:40:24.744Z,18.70
2022-09-04T05:43:27.238Z,18.80
2022-09-04T05:46:28.186Z,18.80
2022-09-04T05:49:01.319Z,18.80
2022-09-04T05:51:53.042Z,18.80
2022-09-04T05:54:32.379Z,18.80
2022-09-04T05:57:28.026Z,18.90
2022-09-04T05:59:57.891Z,18.90
2022-09-04T06:03:06.851Z,18.90
2022-09-04T06:05:51.000Z,19.00
2022-09-04T06:08:34.071Z,19.10
2022-09-04T06:11:22.916Z,19.20
2022-09-04T06:14:10.798Z,19.20
2022-09-04T06:16:46.949Z,19.30
2022-09-04T06:19:28.705Z,19.40
2022-09-04T06:22:14.546Z,19.40
2022-09-04T06:24:59.706Z,19.50
2022-09-04T06:27:41.294Z,19.50
2022-09-04T06:30:13.860Z,19.60
2022-09-04T06:32:43.756Z,19.70
2022-09-04T06:35:47.160Z,19.80
2022-09-04T06:38:49.341Z,19.90
2022-09-04T06:41:37.323Z,19.90
2022-09-04T06:44:45.900Z,20.00
2022-09-04T06:47:41.367Z,20.10
2022-09-04T06:50:30.225Z,20.10
2022-09-04T06:53:20.468Z,20.10
2022-09-04T06:56:10.186Z,20.10
2022-09-04T06:59:10.714Z,20.20
2022-09-04T07:02:06.937Z,20.30
2022-09-04T07:04:43.991Z,20.40
2022-09-04T07:07:32.237Z,20.50
2022-09-04T07:10:16.483Z,20.80
2022-09-04T07:13:05.444Z,20.90
2022-09-04T07:16:05.711Z,21.20
2022-09-04T07:18:57.955Z,21.40
2022-09-04T07:22:00.060Z,21.60
2022-09-04T07:24:51.851Z,21.70
2022-09-04T07:27:36.233Z,21.80
2022-09-04T07:30:06.229Z,21.90
2022-09-04T07:32:45.173Z,22.00
2022-09-04T07:35:34.881Z,22.20
2022-09-04T07:38:21.603Z,22.40
2022-09-04T07:41:31.565Z,22.60
2022-09-04T07:44:03.828Z,22.70
2022-09-04T07:47:12.014Z,22.90
2022-09-04T07:50:06.649Z,23.10
2022-09-04T07:53:03.009Z,23.10
2022-09-04T07:56:00.717Z,23.20
2022-09-04T07:58:39.550Z,23.30
2022-09-04T08:01:23.158Z,23.50
2022-09-04T08:04:46.436Z,23.60
2022-09-04T08:07:32.795Z,23.70
2022-09-04T08:10:33.126Z,23.70
2022-09-04T08:13:23.073Z,23.80
2022-09-04T08:16:23.406Z,23.80
2022-09-04T08:19:19.660Z,23.90
2022-09-04T08:21:48.707Z,24.10
2022-09-04T08:24:50.216Z,24.40
2022-09-04T08:27:24.606Z,24.50
2022-09-04T08:30:21.366Z,24.70
2022-09-04T08:33:00.257Z,24.80
2022-09-04T08:35:34.375Z,24.90
2022-09-04T08:38:12.389Z,25.00
2022-09-04T08:40:42.923Z,25.10
2022-09-04T08:43:18.484Z,25.30
2022-09-04T08:46:04.018Z,25.40
2022-09-04T08:48:58.586Z,25.70
2022-09-04T08:52:11.322Z,25.90
2022-09-04T08:55:03.188Z,26.00
2022-09-04T08:57:32.933Z,26.00
2022-09-04T09:00:42.559Z,25.90
2022-09-04T09:03:19.495Z,26.00
2022-09-04T09:06:25.742Z,26.10
2022-09-04T09:09:27.302Z,26.30
2022-09-04T09:12:20.476Z,26.50
2022-09-04T09:15:05.988Z,26.70
2022-09-04T09:18:04.671Z,26.70
2022-09-04T09:20:45.126Z,26.70
2022-09-04T09:23:51.275Z,27.00
2022-09-04T09:26:29.210Z,27.20
2022-09-04T09:29:24.718Z,27.40
2022-09-04T09:32:10.659Z,27.20
2022-09-04T09:35:29.210Z,26.90
2022-09-04T09:38:34.864Z,27.00
2022-09-04T09:41:22.235Z,27.00
2022-09-04T09:44:15.429Z,27.10
2022-09-04T09:46:58.198Z,27.20
2022-09-04T09:49:43.438Z,27.20
2022-09-04T09:52:42.180Z,27.30
2022-09-04T09:55:45.782Z,27.30
2022-09-04T09:58:40.422Z,27.40
2022-09-04T10:01:14.414Z,27.50
2022-09-04T10:03:49.928Z,27.50
2022-09-04T10:06:55.466Z,27.70
2022-09-04T10:09:37.583Z,27.80
2022-09-04T10:12:34.976Z,28.00
2022-09-04T10:15:27.858Z,28.10
2022-09-04T10:18:04.718Z,28.20
2022-09-04T10:21:12.120Z,28.10
2022-09-04T10:23:44.575Z,28.20
2022-09-04T10:26:23.634Z,28.10
2022-09-04T10:29:28.481Z,28.00
2022-09-04T10:32:40.277Z,27.60
2022-09-04T10:35:25.313Z,27.40
2022-09-04T10:38:32.108Z,27.50
2022-09-04T10:41:20.910Z,27.40
2022-09-04T10:44:24.875Z,27.70
2022-09-04T10:47:08.106Z,27.80
2022-09-04T10:50:16.436Z,27.80
2022-09-04T10:53:14.436Z,27.90
2022-09-04T10:56:05.858Z,27.80
2022-09-04T10:58:59.669Z,27.80
2022-09-04T11:01:45.396Z,27.50
2022-09-04T11:04:45.688Z,27.40
2022-09-04T11:07:46.945Z,27.30
2022-09-04T11:10:42.315Z,27.70
2022-09-04T11:13:38.087Z,28.10
2022-09-04T11:16:35.801Z,28.30
2022-09-04T11:19:32.207Z,28.40
2022-09-04T11:22:01.917Z,28.50
2022-09-04T11:25:04.180Z,28.60
2022-09-04T11:28:06.545Z,28.50
2022-09-04T11:31:11.533Z,28.30
2022-09-04T11:34:20.197Z,28.20
2022-09-04T11:37:05.281Z,28.20
2022-09-04T11:39:47.256Z,28.30
2022-09-04T11:42:44.761Z,28.30
2022-09-04T11:45:41.508Z,28.20
2022-09-04T11:48:42.069Z,28.00
2022-09-04T11:51:39.096Z,28.00
2022-09-04T11:54:24.356Z,28.00
2022-09-04T11:57:13.840Z,28.00
2022-09-04T12:00:06.726Z,28.00
2022-09-04T12:03:02.173Z,28.20
2022-09-04T12:05:51.876Z,28.30
2022-09-04T12:08:35.710Z,28.50
2022-09-04T12:11:21.157Z,28.50
2022-09-04T12:14:19.614Z,28.40
2022-09-04T12:17:15.410Z,28.30
2022-09-04T12:19:54.743Z,28.20
2022-09-04T12:22:41.281Z,28.20
2022-09-04T12:25:10.863Z,28.30
2022-09-04T12:28:06.225Z,28.40
2022-09-04T12:30:51.919Z,28.70
2022-09-04T12:33:30.296Z,28.90
2022-09-04T12:36:15.632Z,29.00
2022-09-04T12:38:58.648Z,29.10
2022-09-04T12:41:48.025Z,29.10
2022-09-04T12:44:41.464Z,28.90
2022-09-04T12:47:34.240Z,28.90
2022-09-04T12:50:16.201Z,28.90
2022-09-04T12:53:03.071Z,28.70
2022-09-04T12:55:56.338Z,28.60
2022-09-04T12:58:38.306Z,28.80
2022-09-04T13:01:33.554Z,28.70
2022-09-04T13:04:01.151Z,28.70
2022-09-04T13:06:59.490Z,28.40
2022-09-04T13:09:37.393Z,28.40
2022-09-04T13:12:38.326Z,28.60
2022-09-04T13:15:28.238Z,28.80
2022-09-04T13:18:09.811Z,29.00
2022-09-04T13:20:46.005Z,29.10
2022-09-04T13:23:38.636Z,29.30
2022-09-04T13:26:43.876Z,29.30
2022-09-04T13:29:29.474Z,29.40
2022-09-04T13:32:20.317Z,29.40
2022-09-04T13:35:17.300Z,29.40
2022-09-04T13:37:54.704Z,29.40
2022-09-04T13:41:03.527Z,29.80
2022-09-04T13:44:00.589Z,30.60
2022-09-04T13:46:44.653Z,31.10
2022-09-04T13:49:18.244Z,31.80
2022-09-04T13:51:55.442Z,32.50
2022-09-04T13:54:38.388Z,32.90
2022-09-04T13:57:16.461Z,33.10
2022-09-04T13:59:49.998Z,32.90
2022-09-04T14:02:24.507Z,32.80
2022-09-04T14:05:01.135Z,33.30
2022-09-04T14:07:44.690Z,33.70
2022-09-04T14:10:21.280Z,34.00
2022-09-04T14:12:53.889Z,34.60
2022-09-04T14:15:28.612Z,35.00
2022-09-04T14:18:26.489Z,35.20
2022-09-04T14:21:01.172Z,35.70
2022-09-04T14:23:54.422Z,36.00
2022-09-04T14:26:29.083Z,35.80
2022-09-04T14:29:04.085Z,35.70
2022-09-04T14:31:46.732Z,35.80
2022-09-04T14:34:46.929Z,35.50
2022-09-04T14:37:48.120Z,34.50
2022-09-04T14:40:36.572Z,33.90
2022-09-04T14:43:24.218Z,33.80
2022-09-04T14:45:54.090Z,34.30
2022-09-04T14:48:24.115Z,34.30
2022-09-04T14:51:00.029Z,34.40
2022-09-04T14:53:34.352Z,34.70
2022-09-04T14:56:07.564Z,34.60
2022-09-04T14:58:56.606Z,34.60
2022-09-04T15:01:25.190Z,34.20
2022-09-04T15:04:10.360Z,33.80
2022-09-04T15:07:01.031Z,33.20
2022-09-04T15:09:37.728Z,33.40
2022-09-04T15:12:25.766Z,34.60
2022-09-04T15:15:05.665Z,35.80
2022-09-04T15:17:36.857Z,36.80
2022-09-04T15:20:09.926Z,37.50
2022-09-04T15:23:01.177Z,37.60
2022-09-04T15:26:00.047Z,37.50
2022-09-04T15:28:38.915Z,37.10
2022-09-04T15:31:18.377Z,37.20
2022-09-04T15:33:47.898Z,37.50
2022-09-04T15:36:23.524Z,37.60
2022-09-04T15:38:59.846Z,37.40
2022-09-04T15:41:38.978Z,37.60
2022-09-04T15:44:27.881Z,37.10
2022-09-04T15:47:19.330Z,35.50
2022-09-04T15:49:51.830Z,33.60
2022-09-04T15:52:40.570Z,32.30
2022-09-04T15:55:31.354Z,31.20
2022-09-04T15:58:32.533Z,30.50
2022-09-04T16:01:06.048Z,30.00
2022-09-04T16:03:51.879Z,29.80
2022-09-04T16:06:32.873Z,29.60
2022-09-04T16:09:10.566Z,29.40
2022-09-04T16:11:42.896Z,29.30
2022-09-04T16:14:22.970Z,29.10
2022-09-04T16:16:59.889Z,29.00
2022-09-04T16:19:35.583Z,28.90
2022-09-04T16:22:24.806Z,28.70
2022-09-04T16:25:06.194Z,28.50
2022-09-04T16:27:49.174Z,28.40
2022-09-04T16:30:34.609Z,28.30
2022-09-04T16:33:02.566Z,28.20
2022-09-04T16:35:35.046Z,28.00
2022-09-04T16:38:15.901Z,27.90
2022-09-04T16:40:48.583Z,27.80
2022-09-04T16:43:29.047Z,27.70
2022-09-04T16:46:28.013Z,27.60
2022-09-04T16:49:19.743Z,27.50
2022-09-04T16:51:58.021Z,27.40
2022-09-04T16:54:47.253Z,27.30
2022-09-04T16:57:21.481Z,27.10
2022-09-04T16:59:54.186Z,27.10
2022-09-04T17:02:51.204Z,27.10
2022-09-04T17:05:42.611Z,27.00
2022-09-04T17:08:26.088Z,26.90
2022-09-04T17:11:12.064Z,26.80
2022-09-04T17:13:48.454Z,26.80
2022-09-04T17:16:24.103Z,26.70
2022-09-04T17:18:54.540Z,26.60
2022-09-04T17:28:44.719Z,26.50
2022-09-04T17:29:16.213Z,26.40
2022-09-04T17:29:16.881Z,26.50
2022-09-04T17:31:06.883Z,26.30
2022-09-04T17:40:37.720Z,26.20
2022-09-04T17:40:44.298Z,26.30
2022-09-04T17:40:50.008Z,26.20
2022-09-04T17:43:21.672Z,26.20
2022-09-04T17:46:12.550Z,26.10
2022-09-04T17:48:42.499Z,26.00
2022-09-04T17:51:17.863Z,26.00
2022-09-04T17:54:15.261Z,26.10
2022-09-04T17:56:57.856Z,25.90
2022-09-04T17:59:55.501Z,25.80
2022-09-04T18:02:45.678Z,25.70
2022-09-04T18:05:31.277Z,25.70
2022-09-04T18:08:16.347Z,25.70
2022-09-04T18:11:22.850Z,25.60
2022-09-04T18:14:11.182Z,25.50
2022-09-04T18:17:22.255Z,25.50
2022-09-04T18:19:52.894Z,25.30
2022-09-04T18:22:40.126Z,25.30
2022-09-04T18:25:17.317Z,25.20
2022-09-04T18:28:06.294Z,25.10
2022-09-04T18:36:40.706Z,25.00
2022-09-04T18:37:25.136Z,24.90
2022-09-04T18:37:44.281Z,24.80
2022-09-04T18:40:15.295Z,24.70
2022-09-04T18:45:14.909Z,24.60
2022-09-04T18:50:28.112Z,24.60
2022-09-04T18:50:39.644Z,24.50
2022-09-04T18:51:25.596Z,24.60
2022-09-04T18:54:20.358Z,24.50
2022-09-04T18:56:52.974Z,24.40
2022-09-04T18:59:31.098Z,24.30
2022-09-04T19:02:31.000Z,24.20
2022-09-04T19:04:59.875Z,24.20
2022-09-04T19:07:34.746Z,24.10
2022-09-04T19:10:21.494Z,24.00
2022-09-04T19:12:51.034Z,23.90
2022-09-04T19:15:50.812Z,23.90
2022-09-04T19:18:43.599Z,23.80
2022-09-04T19:21:14.481Z,23.70
2022-09-04T19:23:58.783Z,23.70
2022-09-04T19:26:44.382Z,23.70
2022-09-04T19:29:26.565Z,23.70
2022-09-04T19:31:56.784Z,23.80
2022-09-04T19:34:40.027Z,23.80
2022-09-04T19:38:32.106Z,23.80
2022-09-04T19:46:02.143Z,23.80
2022-09-04T19:46:06.886Z,23.80
2022-09-04T19:46:51.104Z,23.70
2022-09-04T19:52:58.916Z,23.50
2022-09-04T19:53:30.584Z,23.50
2022-09-04T19:55:35.269Z,23.40
2022-09-04T19:58:08.678Z,23.40
2022-09-04T20:00:45.328Z,23.40
2022-09-04T20:03:29.375Z,23.40
2022-09-04T20:06:21.413Z,23.40
2022-09-04T20:09:14.706Z,23.40
2022-09-04T20:11:48.087Z,23.30
2022-09-04T20:14:24.542Z,23.30
2022-09-04T20:17:00.283Z,23.20
2022-09-04T20:19:35.077Z,23.20
2022-09-04T20:22:25.688Z,23.10
2022-09-04T20:25:07.827Z,23.10
2022-09-04T20:27:56.841Z,23.10
2022-09-04T20:30:31.136Z,23.00
2022-09-04T20:33:19.176Z,22.90
2022-09-04T20:35:56.719Z,22.80
2022-09-04T20:38:55.367Z,22.80
2022-09-04T20:41:27.022Z,22.70
2022-09-04T20:44:13.675Z,22.70
2022-09-04T20:50:29.016Z,22.70
2022-09-04T20:52:54.576Z,22.50
2022-09-04T20:53:05.003Z,22.60
2022-09-04T20:55:46.419Z,22.40
2022-09-04T21:03:11.883Z,22.40
2022-09-04T21:03:12.166Z,22.40
2022-09-04T21:04:42.348Z,22.30
2022-09-04T21:07:35.882Z,22.40
2022-09-04T21:10:22.014Z,22.30
2022-09-04T21:13:14.802Z,22.20
2022-09-04T21:15:48.335Z,22.20
2022-09-04T21:18:29.284Z,22.20
2022-09-04T21:21:36.895Z,22.20
2022-09-04T21:24:16.320Z,22.30
2022-09-04T21:27:10.676Z,22.20
2022-09-04T21:30:02.875Z,22.10
2022-09-04T21:32:46.640Z,22.10
2022-09-04T21:35:19.466Z,22.20
2022-09-04T21:38:04.437Z,22.00
2022-09-04T21:41:29.231Z,22.10
2022-09-04T21:44:22.334Z,22.00
2022-09-04T21:47:31.474Z,22.00
2022-09-04T21:50:17.173Z,21.90
2022-09-04T21:52:57.781Z,21.90
2022-09-04T21:58:21.302Z,21.90
2022-09-04T22:01:56.163Z,21.90
2022-09-04T22:02:37.502Z,21.90
2022-09-04T22:05:07.307Z,21.80
2022-09-04T22:11:50.252Z,21.80
2022-09-04T22:13:32.584Z,21.80
2022-09-04T22:14:30.026Z,21.70
2022-09-04T22:17:22.407Z,21.70
2022-09-04T22:20:18.837Z,21.60
2022-09-04T22:23:24.760Z,21.50
2022-09-04T22:26:23.289Z,21.40
2022-09-04T22:29:40.102Z,21.50
2022-09-04T22:32:14.706Z,21.40
2022-09-04T22:34:53.234Z,21.40
2022-09-04T22:37:35.102Z,21.40
2022-09-04T22:40:55.991Z,21.30
2022-09-04T22:43:25.808Z,21.20
2022-09-04T22:46:13.984Z,21.20
2022-09-04T22:49:11.877Z,21.10
2022-09-04T22:52:11.096Z,21.00
2022-09-04T22:54:59.986Z,21.00
2022-09-04T22:57:53.966Z,20.90
2022-09-04T23:00:21.686Z,20.90
2022-09-04T23:03:18.832Z,20.80
2022-09-04T23:07:18.655Z,20.90
2022-09-04T23:13:58.375Z,20.90
2022-09-04T23:14:01.502Z,20.90
2022-09-04T23:15:19.256Z,20.90
2022-09-04T23:20:10.267Z,20.90
2022-09-04T23:26:35.051Z,20.80
2022-09-04T23:26:46.251Z,20.80
2022-09-04T23:27:31.098Z,20.80
2022-09-04T23:30:25.017Z,20.80
2022-09-04T23:33:11.084Z,20.80
2022-09-04T23:36:19.135Z,20.70
2022-09-04T23:39:23.985Z,20.70
2022-09-04T23:42:02.341Z,20.60
2022-09-04T23:44:50.694Z,20.60
2022-09-04T23:47:47.154Z,20.50
2022-09-04T23:50:47.439Z,20.50
2022-09-04T23:53:43.750Z,20.50
2022-09-04T23:56:38.796Z,20.40
2022-09-04T23:59:37.857Z,20.40
